KTUP/TUP METAR and TAF weather

Enter ICAO airport designator
Station Type Date Time Source
KTUP METAR 2021/09/23 22:53 UTC NOAA

KTUP 232253Z AUTO 34004KT 10SM CLR 23/08 A3006 RMK AO2 SLP176 T02280078 $


Station Type Date Time Source
KTUP Decoded METAR 2021/09/23 22:53 UTC NOAA

TUPELO REGIONAL AIRPORT, MS, United States (KTUP) 34-16N 88-46W 105M
Sep 23, 2021 - 06:53 PM EDT / 2021.09.23 2253 UTC
Wind: from the NNW (340 degrees) at 5 MPH (4 KT):0
Visibility: 10 mile(s):0
Sky conditions: clear
Temperature: 73.0 F (22.8 C)
Dew Point: 46.0 F (7.8 C)
Relative Humidity: 38%
Pressure (altimeter): 30.06 in. Hg (1017 hPa)
ob: KTUP 232253Z AUTO 34004KT 10SM CLR 23/08 A3006 RMK AO2 SLP176 T02280078
cycle: 23

Station Type Date Time Source
KTUP TAF 2021/09/23 18:27 UTC NOAA

TAF KTUP 231724Z 2318/2418 36006KT P6SM SKC
FM240000 00000KT P6SM SKC
FM241500 12004KT P6SM SKC

Example: see airport list